sensor_id;sensor_type;location;lat;lon;timestamp;P1;durP1;ratioP1;P2;durP2;ratioP2
1939;SDS011;1232;48.008;7.864;2022-08-01T07:50:14;19.57;;;18.17;;
1939;SDS011;1232;48.008;7.864;2022-08-01T07:52:41;19.37;;;17.80;;
1939;SDS011;1232;48.008;7.864;2022-08-01T07:55:07;20.00;;;18.43;;
1939;SDS011;1232;48.008;7.864;2022-08-01T07:57:33;19.60;;;18.20;;
1939;SDS011;1232;48.008;7.864;2022-08-01T07:59:59;18.53;;;17.43;;
1939;SDS011;1232;48.008;7.864;2022-08-01T08:02:25;19.10;;;17.63;;
1939;SDS011;1232;48.008;7.864;2022-08-01T08:04:51;18.50;;;17.30;;
1939;SDS011;1232;48.008;7.864;2022-08-01T08:07:17;18.27;;;17.17;;
1939;SDS011;1232;48.008;7.864;2022-08-01T08:09:43;18.23;;;17.13;;
1939;SDS011;1232;48.008;7.864;2022-08-01T08:12:09;19.10;;;17.83;;
1939;SDS011;1232;48.008;7.864;2022-08-01T08:14:34;18.93;;;17.73;;
1939;SDS011;1232;48.008;7.864;2022-08-01T08:17:00;18.83;;;17.63;;
1939;SDS011;1232;48.008;7.864;2022-08-01T08:19:26;19.70;;;18.40;;
1939;SDS011;1232;48.008;7.864;2022-08-01T08:21:51;18.77;;;17.67;;
1939;SDS011;1232;48.008;7.864;2022-08-01T08:24:17;19.60;;;18.10;;
1939;SDS011;1232;48.008;7.864;2022-08-01T08:26:46;18.90;;;17.77;;
1939;SDS011;1232;48.008;7.864;2022-08-01T08:29:13;18.67;;;17.57;;
1939;SDS011;1232;48.008;7.864;2022-08-01T08:31:39;19.03;;;17.90;;
1939;SDS011;1232;48.008;7.864;2022-08-01T08:34:05;19.13;;;18.03;;
1939;SDS011;1232;48.008;7.864;2022-08-01T08:36:30;18.80;;;17.70;;
1939;SDS011;1232;48.008;7.864;2022-08-01T08:38:56;18.60;;;17.40;;
1939;SDS011;1232;48.008;7.864;2022-08-01T08:41:25;18.87;;;17.77;;
1939;SDS011;1232;48.008;7.864;2022-08-01T08:43:51;18.47;;;17.37;;
1939;SDS011;1232;48.008;7.864;2022-08-01T08:46:18;18.80;;;17.60;;
1939;SDS011;1232;48.008;7.864;2022-08-01T08:48:45;19.17;;;17.97;;
1939;SDS011;1232;48.008;7.864;2022-08-01T08:51:11;18.80;;;17.50;;
1939;SDS011;1232;48.008;7.864;2022-08-01T08:53:41;19.53;;;18.33;;
1939;SDS011;1232;48.008;7.864;2022-08-01T08:56:08;18.67;;;17.53;;
1939;SDS011;1232;48.008;7.864;2022-08-01T08:58:37;20.07;;;18.40;;
1939;SDS011;1232;48.008;7.864;2022-08-01T09:01:06;18.73;;;17.63;;
1939;SDS011;1232;48.008;7.864;2022-08-01T09:03:33;19.10;;;18.00;;
1939;SDS011;1232;48.008;7.864;2022-08-01T09:05:59;18.50;;;17.40;;
1939;SDS011;1232;48.008;7.864;2022-08-01T09:08:25;19.07;;;17.93;;
1939;SDS011;1232;48.008;7.864;2022-08-01T09:10:51;18.37;;;17.17;;
1939;SDS011;1232;48.008;7.864;2022-08-01T09:13:16;18.30;;;17.10;;
1939;SDS011;1232;48.008;7.864;2022-08-01T09:21:17;18.63;;;17.37;;
1939;SDS011;1232;48.008;7.864;2022-08-01T09:23:49;18.53;;;17.43;;
1939;SDS011;1232;48.008;7.864;2022-08-01T09:26:17;18.53;;;17.33;;
1939;SDS011;1232;48.008;7.864;2022-08-01T09:28:47;18.43;;;17.30;;
1939;SDS011;1232;48.008;7.864;2022-08-01T09:31:16;19.60;;;18.23;;
1939;SDS011;1232;48.008;7.864;2022-08-01T09:33:56;18.30;;;17.20;;
1939;SDS011;1232;48.008;7.864;2022-08-01T09:36:24;18.70;;;17.50;;
1939;SDS011;1232;48.008;7.864;2022-08-01T09:38:51;19.10;;;17.90;;
1939;SDS011;1232;48.008;7.864;2022-08-01T09:41:28;19.07;;;17.67;;
1939;SDS011;1232;48.008;7.864;2022-08-01T09:43:58;18.77;;;17.67;;
1939;SDS011;1232;48.008;7.864;2022-08-01T09:46:24;18.57;;;17.50;;
1939;SDS011;1232;48.008;7.864;2022-08-01T09:49:00;18.97;;;17.77;;
1939;SDS011;1232;48.008;7.864;2022-08-01T09:51:35;19.27;;;17.83;;
1939;SDS011;1232;48.008;7.864;2022-08-01T09:54:02;18.87;;;17.67;;
1939;SDS011;1232;48.008;7.864;2022-08-01T09:56:40;18.27;;;17.17;;
1939;SDS011;1232;48.008;7.864;2022-08-01T09:59:10;18.87;;;17.70;;
1939;SDS011;1232;48.008;7.864;2022-08-01T10:01:43;18.10;;;16.97;;
1939;SDS011;1232;48.008;7.864;2022-08-01T10:06:46;18.50;;;17.13;;
1939;SDS011;1232;48.008;7.864;2022-08-01T10:09:26;18.93;;;17.80;;
1939;SDS011;1232;48.008;7.864;2022-08-01T10:11:57;18.50;;;17.30;;
1939;SDS011;1232;48.008;7.864;2022-08-01T10:14:24;18.47;;;17.17;;
1939;SDS011;1232;48.008;7.864;2022-08-01T10:16:51;18.73;;;17.63;;
1939;SDS011;1232;48.008;7.864;2022-08-01T10:19:18;18.70;;;17.60;;
1939;SDS011;1232;48.008;7.864;2022-08-01T10:21:47;19.20;;;18.00;;
1939;SDS011;1232;48.008;7.864;2022-08-01T10:24:16;17.97;;;16.87;;
1939;SDS011;1232;48.008;7.864;2022-08-01T10:26:44;18.50;;;17.40;;
1939;SDS011;1232;48.008;7.864;2022-08-01T10:29:14;18.73;;;17.63;;
1939;SDS011;1232;48.008;7.864;2022-08-01T10:31:43;19.20;;;17.90;;
1939;SDS011;1232;48.008;7.864;2022-08-01T10:34:10;18.83;;;17.63;;
1939;SDS011;1232;48.008;7.864;2022-08-01T10:36:36;18.37;;;17.27;;
1939;SDS011;1232;48.008;7.864;2022-08-01T10:41:34;18.40;;;17.20;;
1939;SDS011;1232;48.008;7.864;2022-08-01T10:44:01;18.13;;;17.13;;
1939;SDS011;1232;48.008;7.864;2022-08-01T10:46:28;18.27;;;17.07;;
1939;SDS011;1232;48.008;7.864;2022-08-01T10:49:00;19.30;;;17.70;;
1939;SDS011;1232;48.008;7.864;2022-08-01T10:51:30;18.20;;;17.00;;
1939;SDS011;1232;48.008;7.864;2022-08-01T10:53:59;18.00;;;16.90;;
1939;SDS011;1232;48.008;7.864;2022-08-01T10:59:25;17.97;;;16.87;;
1939;SDS011;1232;48.008;7.864;2022-08-01T11:01:56;18.47;;;17.17;;
1939;SDS011;1232;48.008;7.864;2022-08-01T11:04:31;18.80;;;17.50;;
1939;SDS011;1232;48.008;7.864;2022-08-01T11:07:06;18.13;;;17.03;;
1939;SDS011;1232;48.008;7.864;2022-08-01T11:12:13;18.53;;;17.23;;
1939;SDS011;1232;48.008;7.864;2022-08-01T11:25:24;18.50;;;17.40;;
1939;SDS011;1232;48.008;7.864;2022-08-01T11:30:52;18.33;;;17.13;;
1939;SDS011;1232;48.008;7.864;2022-08-01T11:41:10;18.23;;;17.13;;
1939;SDS011;1232;48.008;7.864;2022-08-01T11:49:22;19.23;;;18.03;;
1939;SDS011;1232;48.008;7.864;2022-08-01T11:52:09;18.97;;;17.77;;
1939;SDS011;1232;48.008;7.864;2022-08-01T11:54:57;18.80;;;17.60;;
1939;SDS011;1232;48.008;7.864;2022-08-01T11:57:32;18.53;;;17.43;;
1939;SDS011;1232;48.008;7.864;2022-08-01T12:00:12;18.77;;;17.30;;
1939;SDS011;1232;48.008;7.864;2022-08-01T12:02:39;19.03;;;17.83;;
1939;SDS011;1232;48.008;7.864;2022-08-01T12:07:33;19.93;;;18.63;;
1939;SDS011;1232;48.008;7.864;2022-08-01T12:10:01;18.80;;;17.57;;
1939;SDS011;1232;48.008;7.864;2022-08-01T12:12:36;18.73;;;17.53;;
1939;SDS011;1232;48.008;7.864;2022-08-01T12:15:06;19.20;;;18.00;;
1939;SDS011;1232;48.008;7.864;2022-08-01T12:17:41;19.77;;;18.47;;
1939;SDS011;1232;48.008;7.864;2022-08-01T12:20:07;19.00;;;17.70;;
1939;SDS011;1232;48.008;7.864;2022-08-01T12:22:35;18.80;;;17.60;;
1939;SDS011;1232;48.008;7.864;2022-08-01T12:27:38;19.00;;;17.90;;
1939;SDS011;1232;48.008;7.864;2022-08-01T12:30:06;19.50;;;18.23;;
1939;SDS011;1232;48.008;7.864;2022-08-01T12:32:34;19.57;;;18.17;;
1939;SDS011;1232;48.008;7.864;2022-08-01T12:35:05;19.07;;;17.87;;
1939;SDS011;1232;48.008;7.864;2022-08-01T12:37:32;18.70;;;17.60;;
1939;SDS011;1232;48.008;7.864;2022-08-01T12:42:38;18.73;;;17.63;;
1939;SDS011;1232;48.008;7.864;2022-08-01T12:45:07;18.80;;;17.70;;
1939;SDS011;1232;48.008;7.864;2022-08-01T12:47:35;19.10;;;17.90;;
1939;SDS011;1232;48.008;7.864;2022-08-01T12:50:03;19.10;;;17.80;;
1939;SDS011;1232;48.008;7.864;2022-08-01T12:52:35;18.87;;;17.77;;
1939;SDS011;1232;48.008;7.864;2022-08-01T12:55:03;19.33;;;18.13;;
1939;SDS011;1232;48.008;7.864;2022-08-01T12:57:35;19.60;;;18.23;;
1939;SDS011;1232;48.008;7.864;2022-08-01T13:00:06;19.50;;;18.30;;
1939;SDS011;1232;48.008;7.864;2022-08-01T13:02:40;19.57;;;18.47;;
1939;SDS011;1232;48.008;7.864;2022-08-01T13:05:06;20.33;;;19.03;;
1939;SDS011;1232;48.008;7.864;2022-08-01T13:07:35;19.57;;;18.47;;
1939;SDS011;1232;48.008;7.864;2022-08-01T13:10:05;19.53;;;18.43;;
1939;SDS011;1232;48.008;7.864;2022-08-01T13:12:32;19.47;;;18.17;;
1939;SDS011;1232;48.008;7.864;2022-08-01T13:14:57;19.53;;;18.23;;
1939;SDS011;1232;48.008;7.864;2022-08-01T13:17:30;19.20;;;17.90;;
1939;SDS011;1232;48.008;7.864;2022-08-01T13:20:03;18.60;;;17.50;;
1939;SDS011;1232;48.008;7.864;2022-08-01T13:22:33;19.07;;;17.97;;
1939;SDS011;1232;48.008;7.864;2022-08-01T13:25:13;19.57;;;18.37;;
1939;SDS011;1232;48.008;7.864;2022-08-01T13:27:40;19.83;;;18.37;;
1939;SDS011;1232;48.008;7.864;2022-08-01T13:30:13;19.80;;;18.27;;
1939;SDS011;1232;48.008;7.864;2022-08-01T13:32:40;19.43;;;18.23;;
1939;SDS011;1232;48.008;7.864;2022-08-01T13:35:08;19.10;;;17.90;;
1939;SDS011;1232;48.008;7.864;2022-08-01T13:37:35;19.50;;;18.30;;
1939;SDS011;1232;48.008;7.864;2022-08-01T13:40:01;18.97;;;17.80;;
1939;SDS011;1232;48.008;7.864;2022-08-01T13:42:27;19.47;;;18.27;;
1939;SDS011;1232;48.008;7.864;2022-08-01T13:44:54;20.23;;;19.03;;
1939;SDS011;1232;48.008;7.864;2022-08-01T13:47:19;19.70;;;18.47;;
1939;SDS011;1232;48.008;7.864;2022-08-01T13:49:45;19.40;;;18.30;;
1939;SDS011;1232;48.008;7.864;2022-08-01T13:52:10;19.57;;;18.33;;
1939;SDS011;1232;48.008;7.864;2022-08-01T13:54:36;19.90;;;18.60;;
1939;SDS011;1232;48.008;7.864;2022-08-01T13:57:02;19.20;;;18.10;;
1939;SDS011;1232;48.008;7.864;2022-08-01T13:59:27;19.77;;;18.47;;
1939;SDS011;1232;48.008;7.864;2022-08-01T14:01:53;20.10;;;18.70;;
1939;SDS011;1232;48.008;7.864;2022-08-01T14:04:19;20.00;;;18.50;;
1939;SDS011;1232;48.008;7.864;2022-08-01T14:06:46;19.60;;;18.40;;
1939;SDS011;1232;48.008;7.864;2022-08-01T14:09:11;19.70;;;18.17;;
1939;SDS011;1232;48.008;7.864;2022-08-01T14:11:37;20.30;;;18.90;;
1939;SDS011;1232;48.008;7.864;2022-08-01T14:14:03;19.60;;;18.40;;
1939;SDS011;1232;48.008;7.864;2022-08-01T14:16:29;19.30;;;18.03;;
1939;SDS011;1232;48.008;7.864;2022-08-01T14:18:54;19.43;;;18.23;;
1939;SDS011;1232;48.008;7.864;2022-08-01T14:21:20;19.60;;;18.40;;
1939;SDS011;1232;48.008;7.864;2022-08-01T14:23:45;18.67;;;17.57;;
1939;SDS011;1232;48.008;7.864;2022-08-01T14:26:11;18.90;;;17.80;;
1939;SDS011;1232;48.008;7.864;2022-08-01T14:28:37;20.40;;;18.80;;
1939;SDS011;1232;48.008;7.864;2022-08-01T14:31:03;19.83;;;18.53;;
1939;SDS011;1232;48.008;7.864;2022-08-01T14:33:30;19.17;;;18.00;;
1939;SDS011;1232;48.008;7.864;2022-08-01T14:35:56;19.83;;;18.53;;
1939;SDS011;1232;48.008;7.864;2022-08-01T14:38:22;19.67;;;18.37;;
1939;SDS011;1232;48.008;7.864;2022-08-01T14:40:47;19.67;;;18.47;;
1939;SDS011;1232;48.008;7.864;2022-08-01T14:43:16;19.17;;;17.80;;
1939;SDS011;1232;48.008;7.864;2022-08-01T14:45:43;19.23;;;18.03;;
1939;SDS011;1232;48.008;7.864;2022-08-01T14:48:09;18.87;;;17.77;;
1939;SDS011;1232;48.008;7.864;2022-08-01T14:50:34;19.40;;;17.90;;
1939;SDS011;1232;48.008;7.864;2022-08-01T15:12:27;19.47;;;18.27;;
1939;SDS011;1232;48.008;7.864;2022-08-01T15:14:52;19.90;;;18.60;;
1939;SDS011;1232;48.008;7.864;2022-08-01T15:19:46;19.50;;;18.40;;
1939;SDS011;1232;48.008;7.864;2022-08-01T15:22:16;19.10;;;17.90;;
1939;SDS011;1232;48.008;7.864;2022-08-01T15:24:43;19.60;;;18.37;;
1939;SDS011;1232;48.008;7.864;2022-08-01T15:27:09;19.77;;;18.57;;
1939;SDS011;1232;48.008;7.864;2022-08-01T15:29:35;19.20;;;18.10;;
1939;SDS011;1232;48.008;7.864;2022-08-01T15:32:02;20.27;;;19.07;;
1939;SDS011;1232;48.008;7.864;2022-08-01T15:34:29;24.93;;;22.63;;
1939;SDS011;1232;48.008;7.864;2022-08-01T15:36:55;20.07;;;18.60;;
1939;SDS011;1232;48.008;7.864;2022-08-01T15:39:21;19.50;;;18.37;;
1939;SDS011;1232;48.008;7.864;2022-08-01T15:41:46;19.40;;;18.20;;
1939;SDS011;1232;48.008;7.864;2022-08-01T15:44:12;20.00;;;18.70;;
1939;SDS011;1232;48.008;7.864;2022-08-01T15:46:37;20.37;;;18.90;;
1939;SDS011;1232;48.008;7.864;2022-08-01T15:49:04;19.40;;;18.30;;
1939;SDS011;1232;48.008;7.864;2022-08-01T15:51:32;19.10;;;17.93;;
1939;SDS011;1232;48.008;7.864;2022-08-01T15:53:58;19.43;;;18.13;;
1939;SDS011;1232;48.008;7.864;2022-08-01T15:56:28;19.83;;;18.63;;
1939;SDS011;1232;48.008;7.864;2022-08-01T15:58:54;19.87;;;18.67;;
1939;SDS011;1232;48.008;7.864;2022-08-01T16:01:20;19.90;;;18.60;;
1939;SDS011;1232;48.008;7.864;2022-08-01T16:03:46;19.27;;;18.17;;
1939;SDS011;1232;48.008;7.864;2022-08-01T16:06:11;19.37;;;18.20;;
1939;SDS011;1232;48.008;7.864;2022-08-01T16:08:37;19.90;;;18.70;;
1939;SDS011;1232;48.008;7.864;2022-08-01T16:11:02;19.00;;;17.90;;
1939;SDS011;1232;48.008;7.864;2022-08-01T16:13:28;19.73;;;18.40;;
1939;SDS011;1232;48.008;7.864;2022-08-01T16:15:54;19.83;;;18.70;;
1939;SDS011;1232;48.008;7.864;2022-08-01T16:18:19;19.80;;;18.37;;
1939;SDS011;1232;48.008;7.864;2022-08-01T16:20:45;19.90;;;18.30;;
1939;SDS011;1232;48.008;7.864;2022-08-01T16:23:10;19.23;;;18.07;;
1939;SDS011;1232;48.008;7.864;2022-08-01T18:57:39;13.77;;;12.80;;
1939;SDS011;1232;48.008;7.864;2022-08-01T19:00:05;12.80;;;12.00;;
1939;SDS011;1232;48.008;7.864;2022-08-01T19:02:31;13.07;;;12.37;;
1939;SDS011;1232;48.008;7.864;2022-08-01T19:04:56;12.83;;;12.13;;
1939;SDS011;1232;48.008;7.864;2022-08-01T19:07:22;13.73;;;12.93;;
1939;SDS011;1232;48.008;7.864;2022-08-01T19:34:10;13.10;;;12.30;;
1939;SDS011;1232;48.008;7.864;2022-08-01T19:36:37;13.30;;;12.60;;
1939;SDS011;1232;48.008;7.864;2022-08-01T19:39:04;13.67;;;12.87;;
1939;SDS011;1232;48.008;7.864;2022-08-01T19:41:31;13.50;;;12.70;;
1939;SDS011;1232;48.008;7.864;2022-08-01T19:43:59;13.97;;;13.00;;
1939;SDS011;1232;48.008;7.864;2022-08-01T19:46:27;13.37;;;12.43;;
1939;SDS011;1232;48.008;7.864;2022-08-01T19:48:54;12.87;;;12.17;;
1939;SDS011;1232;48.008;7.864;2022-08-01T19:51:21;13.60;;;12.90;;
1939;SDS011;1232;48.008;7.864;2022-08-01T19:54:44;13.00;;;12.40;;
1939;SDS011;1232;48.008;7.864;2022-08-01T19:57:12;13.43;;;12.63;;
1939;SDS011;1232;48.008;7.864;2022-08-01T19:59:39;12.77;;;12.07;;
1939;SDS011;1232;48.008;7.864;2022-08-01T20:02:06;13.30;;;12.40;;
1939;SDS011;1232;48.008;7.864;2022-08-01T20:04:33;12.70;;;11.97;;
1939;SDS011;1232;48.008;7.864;2022-08-01T20:09:26;12.80;;;12.10;;
1939;SDS011;1232;48.008;7.864;2022-08-01T20:11:53;13.93;;;12.93;;
1939;SDS011;1232;48.008;7.864;2022-08-01T20:14:19;12.80;;;12.10;;
1939;SDS011;1232;48.008;7.864;2022-08-01T20:16:47;13.20;;;12.50;;
1939;SDS011;1232;48.008;7.864;2022-08-01T20:19:14;13.00;;;12.10;;
1939;SDS011;1232;48.008;7.864;2022-08-01T20:21:46;13.17;;;12.37;;
1939;SDS011;1232;48.008;7.864;2022-08-01T20:24:14;12.77;;;12.00;;
1939;SDS011;1232;48.008;7.864;2022-08-01T20:26:42;12.67;;;11.97;;
1939;SDS011;1232;48.008;7.864;2022-08-01T20:29:10;12.33;;;11.73;;
1939;SDS011;1232;48.008;7.864;2022-08-01T20:31:37;13.23;;;12.33;;
1939;SDS011;1232;48.008;7.864;2022-08-01T20:34:04;12.93;;;12.23;;
1939;SDS011;1232;48.008;7.864;2022-08-01T20:36:30;12.70;;;12.00;;
1939;SDS011;1232;48.008;7.864;2022-08-01T20:38:58;12.37;;;11.77;;
1939;SDS011;1232;48.008;7.864;2022-08-01T20:41:25;12.80;;;12.00;;
1939;SDS011;1232;48.008;7.864;2022-08-01T20:43:52;12.30;;;11.63;;
1939;SDS011;1232;48.008;7.864;2022-08-01T20:46:20;12.07;;;11.47;;
1939;SDS011;1232;48.008;7.864;2022-08-01T20:48:51;12.30;;;11.60;;
1939;SDS011;1232;48.008;7.864;2022-08-01T20:51:19;12.60;;;11.80;;
1939;SDS011;1232;48.008;7.864;2022-08-01T20:53:48;12.37;;;11.73;;
1939;SDS011;1232;48.008;7.864;2022-08-01T20:59:24;12.80;;;12.00;;
1939;SDS011;1232;48.008;7.864;2022-08-01T21:02:00;12.80;;;12.10;;
1939;SDS011;1232;48.008;7.864;2022-08-01T21:07:37;12.00;;;11.40;;
1939;SDS011;1232;48.008;7.864;2022-08-01T21:12:37;12.73;;;12.03;;
1939;SDS011;1232;48.008;7.864;2022-08-01T21:15:58;12.10;;;11.37;;
1939;SDS011;1232;48.008;7.864;2022-08-01T21:18:11;12.07;;;11.37;;
1939;SDS011;1232;48.008;7.864;2022-08-01T21:20:48;13.00;;;12.03;;
1939;SDS011;1232;48.008;7.864;2022-08-01T21:25:58;11.70;;;11.10;;
1939;SDS011;1232;48.008;7.864;2022-08-01T21:28:24;12.50;;;11.80;;
1939;SDS011;1232;48.008;7.864;2022-08-01T21:30:55;12.53;;;11.73;;
1939;SDS011;1232;48.008;7.864;2022-08-01T21:33:21;12.20;;;11.50;;
